sensor_id;sensor_type;location;lat;lon;timestamp;P1;durP1;ratioP1;P2;durP2;ratioP2
38603;SDS011;24924;50.054;8.790;2023-03-12T00:00:37;11.85;;;7.32;;
38603;SDS011;24924;50.054;8.790;2023-03-12T00:03:04;11.35;;;7.45;;
38603;SDS011;24924;50.054;8.790;2023-03-12T00:05:30;12.90;;;7.60;;
38603;SDS011;24924;50.054;8.790;2023-03-12T00:07:56;11.43;;;8.07;;
38603;SDS011;24924;50.054;8.790;2023-03-12T00:10:27;15.53;;;8.97;;
38603;SDS011;24924;50.054;8.790;2023-03-12T00:12:54;13.23;;;8.32;;
38603;SDS011;24924;50.054;8.790;2023-03-12T00:15:20;14.00;;;8.43;;
38603;SDS011;24924;50.054;8.790;2023-03-12T00:17:46;14.98;;;9.07;;
38603;SDS011;24924;50.054;8.790;2023-03-12T00:20:12;14.38;;;9.02;;
38603;SDS011;24924;50.054;8.790;2023-03-12T00:22:38;12.20;;;8.27;;
38603;SDS011;24924;50.054;8.790;2023-03-12T00:25:06;13.15;;;8.45;;
38603;SDS011;24924;50.054;8.790;2023-03-12T00:27:35;13.93;;;8.07;;
38603;SDS011;24924;50.054;8.790;2023-03-12T00:30:02;14.68;;;8.57;;
38603;SDS011;24924;50.054;8.790;2023-03-12T00:32:32;11.68;;;7.72;;
38603;SDS011;24924;50.054;8.790;2023-03-12T00:34:58;15.70;;;8.87;;
38603;SDS011;24924;50.054;8.790;2023-03-12T00:37:24;13.95;;;8.20;;
38603;SDS011;24924;50.054;8.790;2023-03-12T00:39:50;14.25;;;8.00;;
38603;SDS011;24924;50.054;8.790;2023-03-12T00:42:16;14.55;;;8.75;;
38603;SDS011;24924;50.054;8.790;2023-03-12T00:44:42;14.47;;;7.97;;
38603;SDS011;24924;50.054;8.790;2023-03-12T00:47:09;11.65;;;7.55;;
38603;SDS011;24924;50.054;8.790;2023-03-12T00:49:35;13.20;;;8.43;;
38603;SDS011;24924;50.054;8.790;2023-03-12T00:52:01;14.07;;;7.95;;
38603;SDS011;24924;50.054;8.790;2023-03-12T00:54:28;15.13;;;8.27;;
38603;SDS011;24924;50.054;8.790;2023-03-12T00:56:54;13.43;;;8.30;;
38603;SDS011;24924;50.054;8.790;2023-03-12T00:59:19;14.20;;;8.05;;
38603;SDS011;24924;50.054;8.790;2023-03-12T01:01:45;16.23;;;8.80;;
38603;SDS011;24924;50.054;8.790;2023-03-12T01:04:12;14.40;;;9.13;;
38603;SDS011;24924;50.054;8.790;2023-03-12T01:06:38;12.60;;;8.57;;
38603;SDS011;24924;50.054;8.790;2023-03-12T01:09:04;13.05;;;8.80;;
38603;SDS011;24924;50.054;8.790;2023-03-12T01:11:32;15.77;;;8.80;;
38603;SDS011;24924;50.054;8.790;2023-03-12T01:13:58;15.90;;;9.60;;
38603;SDS011;24924;50.054;8.790;2023-03-12T01:16:26;14.60;;;8.40;;
38603;SDS011;24924;50.054;8.790;2023-03-12T01:18:58;11.43;;;8.05;;
38603;SDS011;24924;50.054;8.790;2023-03-12T01:21:25;14.27;;;8.57;;
38603;SDS011;24924;50.054;8.790;2023-03-12T01:23:52;11.77;;;7.95;;
38603;SDS011;24924;50.054;8.790;2023-03-12T01:26:20;13.75;;;7.72;;
38603;SDS011;24924;50.054;8.790;2023-03-12T01:28:45;14.80;;;8.40;;
38603;SDS011;24924;50.054;8.790;2023-03-12T01:31:12;14.43;;;8.05;;
38603;SDS011;24924;50.054;8.790;2023-03-12T01:33:40;14.70;;;9.27;;
38603;SDS011;24924;50.054;8.790;2023-03-12T01:36:19;14.10;;;8.13;;
38603;SDS011;24924;50.054;8.790;2023-03-12T01:38:49;13.32;;;8.40;;
38603;SDS011;24924;50.054;8.790;2023-03-12T01:41:19;12.88;;;8.43;;
38603;SDS011;24924;50.054;8.790;2023-03-12T01:43:46;15.90;;;8.85;;
38603;SDS011;24924;50.054;8.790;2023-03-12T01:46:26;14.35;;;9.85;;
38603;SDS011;24924;50.054;8.790;2023-03-12T01:49:08;12.13;;;8.40;;
38603;SDS011;24924;50.054;8.790;2023-03-12T01:54:14;14.68;;;9.43;;
38603;SDS011;24924;50.054;8.790;2023-03-12T01:56:54;17.60;;;8.38;;
38603;SDS011;24924;50.054;8.790;2023-03-12T02:02:08;12.13;;;8.43;;
38603;SDS011;24924;50.054;8.790;2023-03-12T02:04:35;13.82;;;8.27;;
38603;SDS011;24924;50.054;8.790;2023-03-12T02:07:04;15.20;;;8.73;;
38603;SDS011;24924;50.054;8.790;2023-03-12T02:09:36;13.65;;;8.15;;
38603;SDS011;24924;50.054;8.790;2023-03-12T02:12:05;15.52;;;8.65;;
38603;SDS011;24924;50.054;8.790;2023-03-12T02:14:31;17.63;;;7.83;;
38603;SDS011;24924;50.054;8.790;2023-03-12T02:16:58;15.07;;;8.50;;
38603;SDS011;24924;50.054;8.790;2023-03-12T02:22:13;11.00;;;8.02;;
38603;SDS011;24924;50.054;8.790;2023-03-12T02:25:00;12.27;;;8.02;;
38603;SDS011;24924;50.054;8.790;2023-03-12T02:27:46;10.27;;;7.57;;
38603;SDS011;24924;50.054;8.790;2023-03-12T02:30:13;12.20;;;8.38;;
38603;SDS011;24924;50.054;8.790;2023-03-12T02:32:41;12.95;;;7.60;;
38603;SDS011;24924;50.054;8.790;2023-03-12T02:35:09;12.77;;;8.07;;
38603;SDS011;24924;50.054;8.790;2023-03-12T02:37:45;13.73;;;8.48;;
38603;SDS011;24924;50.054;8.790;2023-03-12T02:40:14;13.50;;;7.30;;
38603;SDS011;24924;50.054;8.790;2023-03-12T02:42:49;11.80;;;7.63;;
38603;SDS011;24924;50.054;8.790;2023-03-12T02:45:16;11.13;;;7.93;;
38603;SDS011;24924;50.054;8.790;2023-03-12T02:47:43;12.90;;;7.95;;
38603;SDS011;24924;50.054;8.790;2023-03-12T02:50:09;14.85;;;8.43;;
38603;SDS011;24924;50.054;8.790;2023-03-12T02:52:36;12.20;;;7.90;;
38603;SDS011;24924;50.054;8.790;2023-03-12T02:55:05;12.45;;;7.75;;
38603;SDS011;24924;50.054;8.790;2023-03-12T02:57:32;13.18;;;8.23;;
38603;SDS011;24924;50.054;8.790;2023-03-12T03:00:05;11.93;;;7.75;;
38603;SDS011;24924;50.054;8.790;2023-03-12T03:02:36;17.02;;;10.93;;
38603;SDS011;24924;50.054;8.790;2023-03-12T03:05:03;12.80;;;8.50;;
38603;SDS011;24924;50.054;8.790;2023-03-12T03:07:29;11.15;;;7.70;;
38603;SDS011;24924;50.054;8.790;2023-03-12T03:09:56;13.75;;;7.85;;
38603;SDS011;24924;50.054;8.790;2023-03-12T03:12:29;13.25;;;8.18;;
38603;SDS011;24924;50.054;8.790;2023-03-12T03:14:57;12.55;;;8.23;;
38603;SDS011;24924;50.054;8.790;2023-03-12T03:17:23;14.47;;;7.53;;
38603;SDS011;24924;50.054;8.790;2023-03-12T03:19:50;13.40;;;7.90;;
38603;SDS011;24924;50.054;8.790;2023-03-12T03:22:17;12.77;;;7.80;;
38603;SDS011;24924;50.054;8.790;2023-03-12T03:24:44;11.93;;;7.40;;
38603;SDS011;24924;50.054;8.790;2023-03-12T03:27:10;12.25;;;8.10;;
38603;SDS011;24924;50.054;8.790;2023-03-12T03:29:36;11.70;;;7.50;;
38603;SDS011;24924;50.054;8.790;2023-03-12T03:32:02;12.85;;;7.40;;
38603;SDS011;24924;50.054;8.790;2023-03-12T03:34:29;13.32;;;8.38;;
38603;SDS011;24924;50.054;8.790;2023-03-12T03:36:55;10.98;;;7.85;;
38603;SDS011;24924;50.054;8.790;2023-03-12T03:39:21;10.97;;;7.60;;
38603;SDS011;24924;50.054;8.790;2023-03-12T03:41:49;11.23;;;7.63;;
38603;SDS011;24924;50.054;8.790;2023-03-12T03:44:18;15.90;;;7.95;;
38603;SDS011;24924;50.054;8.790;2023-03-12T03:46:47;12.82;;;7.53;;
38603;SDS011;24924;50.054;8.790;2023-03-12T03:49:14;11.93;;;7.95;;
38603;SDS011;24924;50.054;8.790;2023-03-12T03:51:41;10.73;;;7.50;;
38603;SDS011;24924;50.054;8.790;2023-03-12T03:54:10;12.05;;;7.78;;
38603;SDS011;24924;50.054;8.790;2023-03-12T03:56:36;13.10;;;7.55;;
38603;SDS011;24924;50.054;8.790;2023-03-12T03:59:04;15.88;;;8.25;;
38603;SDS011;24924;50.054;8.790;2023-03-12T04:01:32;12.13;;;7.75;;
38603;SDS011;24924;50.054;8.790;2023-03-12T04:04:00;13.10;;;7.80;;
38603;SDS011;24924;50.054;8.790;2023-03-12T04:06:27;12.00;;;7.65;;
38603;SDS011;24924;50.054;8.790;2023-03-12T04:08:55;13.82;;;8.07;;
38603;SDS011;24924;50.054;8.790;2023-03-12T04:11:23;13.90;;;7.57;;
38603;SDS011;24924;50.054;8.790;2023-03-12T04:13:52;12.95;;;7.93;;
38603;SDS011;24924;50.054;8.790;2023-03-12T04:16:22;12.47;;;7.63;;
38603;SDS011;24924;50.054;8.790;2023-03-12T04:18:51;13.68;;;8.23;;
38603;SDS011;24924;50.054;8.790;2023-03-12T04:21:17;14.15;;;7.88;;
38603;SDS011;24924;50.054;8.790;2023-03-12T04:23:45;12.48;;;7.88;;
38603;SDS011;24924;50.054;8.790;2023-03-12T04:26:12;14.98;;;8.00;;
38603;SDS011;24924;50.054;8.790;2023-03-12T04:28:39;16.13;;;8.53;;
38603;SDS011;24924;50.054;8.790;2023-03-12T04:31:07;13.02;;;8.07;;
38603;SDS011;24924;50.054;8.790;2023-03-12T04:33:37;12.23;;;8.13;;
38603;SDS011;24924;50.054;8.790;2023-03-12T04:36:05;15.63;;;7.40;;
38603;SDS011;24924;50.054;8.790;2023-03-12T04:38:32;13.70;;;7.97;;
38603;SDS011;24924;50.054;8.790;2023-03-12T04:41:03;13.33;;;7.50;;
38603;SDS011;24924;50.054;8.790;2023-03-12T04:43:37;12.32;;;7.43;;
38603;SDS011;24924;50.054;8.790;2023-03-12T04:46:03;12.52;;;7.68;;
38603;SDS011;24924;50.054;8.790;2023-03-12T04:48:29;12.05;;;7.70;;
38603;SDS011;24924;50.054;8.790;2023-03-12T04:50:55;13.20;;;7.88;;
38603;SDS011;24924;50.054;8.790;2023-03-12T04:53:21;14.07;;;7.90;;
38603;SDS011;24924;50.054;8.790;2023-03-12T04:55:49;15.55;;;8.48;;
38603;SDS011;24924;50.054;8.790;2023-03-12T04:58:16;14.40;;;8.40;;
38603;SDS011;24924;50.054;8.790;2023-03-12T05:00:42;13.27;;;8.00;;
38603;SDS011;24924;50.054;8.790;2023-03-12T05:03:09;14.77;;;7.80;;
38603;SDS011;24924;50.054;8.790;2023-03-12T05:05:35;11.98;;;7.93;;
38603;SDS011;24924;50.054;8.790;2023-03-12T05:08:02;13.43;;;8.30;;
38603;SDS011;24924;50.054;8.790;2023-03-12T05:10:30;13.65;;;8.55;;
38603;SDS011;24924;50.054;8.790;2023-03-12T05:12:56;11.50;;;7.57;;
38603;SDS011;24924;50.054;8.790;2023-03-12T05:15:24;11.43;;;7.53;;
38603;SDS011;24924;50.054;8.790;2023-03-12T05:17:51;11.40;;;8.02;;
38603;SDS011;24924;50.054;8.790;2023-03-12T05:20:17;12.65;;;7.95;;
38603;SDS011;24924;50.054;8.790;2023-03-12T05:22:45;13.48;;;8.35;;
38603;SDS011;24924;50.054;8.790;2023-03-12T05:25:12;11.55;;;7.80;;
38603;SDS011;24924;50.054;8.790;2023-03-12T05:27:39;11.77;;;7.63;;
38603;SDS011;24924;50.054;8.790;2023-03-12T05:30:06;11.27;;;7.90;;
38603;SDS011;24924;50.054;8.790;2023-03-12T05:32:35;11.85;;;7.40;;
38603;SDS011;24924;50.054;8.790;2023-03-12T05:35:01;11.60;;;7.43;;
38603;SDS011;24924;50.054;8.790;2023-03-12T05:37:27;12.00;;;8.60;;
38603;SDS011;24924;50.054;8.790;2023-03-12T05:39:53;14.10;;;8.50;;
38603;SDS011;24924;50.054;8.790;2023-03-12T05:42:19;13.32;;;8.50;;
38603;SDS011;24924;50.054;8.790;2023-03-12T05:44:47;15.15;;;7.22;;
38603;SDS011;24924;50.054;8.790;2023-03-12T05:47:16;13.98;;;7.90;;
38603;SDS011;24924;50.054;8.790;2023-03-12T05:49:43;12.70;;;7.87;;
38603;SDS011;24924;50.054;8.790;2023-03-12T05:52:09;13.57;;;7.78;;
38603;SDS011;24924;50.054;8.790;2023-03-12T05:54:35;12.07;;;8.02;;
38603;SDS011;24924;50.054;8.790;2023-03-12T05:57:03;10.32;;;7.43;;
38603;SDS011;24924;50.054;8.790;2023-03-12T05:59:29;12.40;;;7.90;;
38603;SDS011;24924;50.054;8.790;2023-03-12T06:01:56;12.25;;;7.18;;
38603;SDS011;24924;50.054;8.790;2023-03-12T06:04:22;11.48;;;7.75;;
38603;SDS011;24924;50.054;8.790;2023-03-12T06:06:49;14.90;;;7.40;;
38603;SDS011;24924;50.054;8.790;2023-03-12T06:09:16;13.70;;;7.55;;
38603;SDS011;24924;50.054;8.790;2023-03-12T06:11:42;12.93;;;7.27;;
38603;SDS011;24924;50.054;8.790;2023-03-12T06:14:08;12.55;;;7.15;;
38603;SDS011;24924;50.054;8.790;2023-03-12T06:16:35;9.88;;;6.60;;
38603;SDS011;24924;50.054;8.790;2023-03-12T06:19:02;12.23;;;7.15;;
38603;SDS011;24924;50.054;8.790;2023-03-12T06:21:31;10.63;;;6.43;;
38603;SDS011;24924;50.054;8.790;2023-03-12T06:23:59;11.05;;;6.82;;
38603;SDS011;24924;50.054;8.790;2023-03-12T06:26:31;10.60;;;7.05;;
38603;SDS011;24924;50.054;8.790;2023-03-12T06:28:57;13.50;;;7.32;;
38603;SDS011;24924;50.054;8.790;2023-03-12T06:31:23;12.80;;;7.33;;
38603;SDS011;24924;50.054;8.790;2023-03-12T06:33:49;11.13;;;6.63;;
38603;SDS011;24924;50.054;8.790;2023-03-12T06:36:15;11.57;;;6.55;;
38603;SDS011;24924;50.054;8.790;2023-03-12T06:38:42;9.95;;;6.32;;
38603;SDS011;24924;50.054;8.790;2023-03-12T06:41:12;10.30;;;6.57;;
38603;SDS011;24924;50.054;8.790;2023-03-12T06:43:40;12.00;;;6.32;;
38603;SDS011;24924;50.054;8.790;2023-03-12T06:46:07;11.30;;;6.53;;
38603;SDS011;24924;50.054;8.790;2023-03-12T06:48:35;11.70;;;6.65;;
38603;SDS011;24924;50.054;8.790;2023-03-12T06:51:09;14.45;;;7.18;;
38603;SDS011;24924;50.054;8.790;2023-03-12T06:53:36;8.93;;;6.17;;
38603;SDS011;24924;50.054;8.790;2023-03-12T06:56:02;9.68;;;6.05;;
38603;SDS011;24924;50.054;8.790;2023-03-12T06:58:29;12.50;;;6.40;;
38603;SDS011;24924;50.054;8.790;2023-03-12T07:00:55;9.18;;;5.88;;
38603;SDS011;24924;50.054;8.790;2023-03-12T07:03:21;10.30;;;5.70;;
38603;SDS011;24924;50.054;8.790;2023-03-12T07:05:47;9.65;;;6.05;;
38603;SDS011;24924;50.054;8.790;2023-03-12T07:08:15;10.63;;;6.15;;
38603;SDS011;24924;50.054;8.790;2023-03-12T07:10:41;10.93;;;5.78;;
38603;SDS011;24924;50.054;8.790;2023-03-12T07:13:07;12.57;;;6.83;;
38603;SDS011;24924;50.054;8.790;2023-03-12T07:15:33;10.95;;;6.40;;
38603;SDS011;24924;50.054;8.790;2023-03-12T07:17:59;12.18;;;6.55;;
38603;SDS011;24924;50.054;8.790;2023-03-12T07:20:28;9.03;;;6.07;;
38603;SDS011;24924;50.054;8.790;2023-03-12T07:22:53;11.73;;;6.00;;
38603;SDS011;24924;50.054;8.790;2023-03-12T07:25:19;9.75;;;5.97;;
38603;SDS011;24924;50.054;8.790;2023-03-12T07:27:45;11.80;;;6.23;;
38603;SDS011;24924;50.054;8.790;2023-03-12T07:30:11;9.20;;;6.15;;
38603;SDS011;24924;50.054;8.790;2023-03-12T07:32:37;10.90;;;5.97;;
38603;SDS011;24924;50.054;8.790;2023-03-12T07:35:04;9.50;;;6.13;;
38603;SDS011;24924;50.054;8.790;2023-03-12T07:37:30;9.37;;;5.73;;
38603;SDS011;24924;50.054;8.790;2023-03-12T07:39:56;10.65;;;5.80;;
38603;SDS011;24924;50.054;8.790;2023-03-12T07:42:22;8.77;;;5.47;;
38603;SDS011;24924;50.054;8.790;2023-03-12T07:44:48;10.48;;;6.47;;
38603;SDS011;24924;50.054;8.790;2023-03-12T07:47:14;8.80;;;6.07;;
38603;SDS011;24924;50.054;8.790;2023-03-12T07:49:40;10.18;;;5.90;;
38603;SDS011;24924;50.054;8.790;2023-03-12T07:52:07;9.35;;;5.95;;
38603;SDS011;24924;50.054;8.790;2023-03-12T07:54:36;10.52;;;5.85;;
38603;SDS011;24924;50.054;8.790;2023-03-12T07:57:03;9.90;;;6.25;;
38603;SDS011;24924;50.054;8.790;2023-03-12T07:59:29;10.93;;;5.73;;
38603;SDS011;24924;50.054;8.790;2023-03-12T08:01:55;10.68;;;5.80;;
38603;SDS011;24924;50.054;8.790;2023-03-12T08:04:21;10.23;;;6.18;;
38603;SDS011;24924;50.054;8.790;2023-03-12T08:06:47;9.77;;;6.27;;
38603;SDS011;24924;50.054;8.790;2023-03-12T08:09:13;10.00;;;5.57;;
38603;SDS011;24924;50.054;8.790;2023-03-12T08:11:39;8.37;;;5.50;;
38603;SDS011;24924;50.054;8.790;2023-03-12T08:14:05;11.13;;;6.03;;
38603;SDS011;24924;50.054;8.790;2023-03-12T08:16:31;8.57;;;5.80;;
38603;SDS011;24924;50.054;8.790;2023-03-12T08:18:57;8.60;;;5.25;;
38603;SDS011;24924;50.054;8.790;2023-03-12T08:21:23;10.05;;;5.57;;
38603;SDS011;24924;50.054;8.790;2023-03-12T08:23:49;7.87;;;5.27;;
38603;SDS011;24924;50.054;8.790;2023-03-12T08:26:15;9.20;;;5.80;;
38603;SDS011;24924;50.054;8.790;2023-03-12T08:28:41;8.00;;;5.53;;
38603;SDS011;24924;50.054;8.790;2023-03-12T08:31:07;10.87;;;5.50;;
38603;SDS011;24924;50.054;8.790;2023-03-12T08:33:33;10.13;;;5.55;;
38603;SDS011;24924;50.054;8.790;2023-03-12T08:36:00;10.93;;;5.88;;
38603;SDS011;24924;50.054;8.790;2023-03-12T08:38:26;9.07;;;5.40;;
38603;SDS011;24924;50.054;8.790;2023-03-12T08:40:56;8.93;;;5.53;;
38603;SDS011;24924;50.054;8.790;2023-03-12T08:43:23;10.15;;;5.97;;
38603;SDS011;24924;50.054;8.790;2023-03-12T08:45:59;11.98;;;6.18;;
38603;SDS011;24924;50.054;8.790;2023-03-12T08:48:26;7.82;;;5.47;;
38603;SDS011;24924;50.054;8.790;2023-03-12T08:50:54;10.35;;;6.25;;
38603;SDS011;24924;50.054;8.790;2023-03-12T08:53:21;11.30;;;5.50;;
38603;SDS011;24924;50.054;8.790;2023-03-12T08:55:47;13.45;;;5.75;;
38603;SDS011;24924;50.054;8.790;2023-03-12T08:58:13;9.25;;;5.50;;
38603;SDS011;24924;50.054;8.790;2023-03-12T09:00:38;8.23;;;5.77;;
38603;SDS011;24924;50.054;8.790;2023-03-12T09:03:04;8.52;;;5.53;;
38603;SDS011;24924;50.054;8.790;2023-03-12T09:05:30;8.67;;;5.73;;
38603;SDS011;24924;50.054;8.790;2023-03-12T09:07:56;9.15;;;5.38;;
38603;SDS011;24924;50.054;8.790;2023-03-12T09:10:23;8.25;;;5.20;;
38603;SDS011;24924;50.054;8.790;2023-03-12T09:12:51;9.00;;;5.18;;
38603;SDS011;24924;50.054;8.790;2023-03-12T09:15:17;8.67;;;5.17;;
38603;SDS011;24924;50.054;8.790;2023-03-12T09:17:43;11.00;;;5.18;;
38603;SDS011;24924;50.054;8.790;2023-03-12T09:20:09;10.38;;;5.40;;
38603;SDS011;24924;50.054;8.790;2023-03-12T09:22:38;14.77;;;5.55;;
38603;SDS011;24924;50.054;8.790;2023-03-12T09:25:05;9.50;;;5.95;;
38603;SDS011;24924;50.054;8.790;2023-03-12T09:27:36;14.03;;;5.53;;
38603;SDS011;24924;50.054;8.790;2023-03-12T09:30:04;12.38;;;5.72;;
38603;SDS011;24924;50.054;8.790;2023-03-12T09:32:31;8.27;;;5.35;;
38603;SDS011;24924;50.054;8.790;2023-03-12T09:34:57;8.18;;;5.22;;
38603;SDS011;24924;50.054;8.790;2023-03-12T09:37:23;15.40;;;5.88;;
38603;SDS011;24924;50.054;8.790;2023-03-12T09:39:50;8.13;;;5.60;;
38603;SDS011;24924;50.054;8.790;2023-03-12T09:42:27;12.63;;;6.05;;
38603;SDS011;24924;50.054;8.790;2023-03-12T09:45:06;11.50;;;6.28;;
38603;SDS011;24924;50.054;8.790;2023-03-12T09:47:44;11.02;;;6.75;;
38603;SDS011;24924;50.054;8.790;2023-03-12T09:50:22;11.45;;;6.55;;
38603;SDS011;24924;50.054;8.790;2023-03-12T09:52:52;11.57;;;7.00;;
38603;SDS011;24924;50.054;8.790;2023-03-12T09:55:22;13.52;;;7.22;;
38603;SDS011;24924;50.054;8.790;2023-03-12T09:57:49;13.25;;;7.75;;
38603;SDS011;24924;50.054;8.790;2023-03-12T10:00:17;12.27;;;8.32;;
38603;SDS011;24924;50.054;8.790;2023-03-12T10:05:44;13.37;;;7.60;;
38603;SDS011;24924;50.054;8.790;2023-03-12T10:19:45;15.77;;;9.90;;
38603;SDS011;24924;50.054;8.790;2023-03-12T10:25:14;16.98;;;9.98;;
38603;SDS011;24924;50.054;8.790;2023-03-12T10:27:41;20.63;;;10.65;;
38603;SDS011;24924;50.054;8.790;2023-03-12T10:30:15;19.43;;;11.77;;
38603;SDS011;24924;50.054;8.790;2023-03-12T10:32:47;22.02;;;11.88;;
38603;SDS011;24924;50.054;8.790;2023-03-12T10:35:20;18.80;;;10.82;;
38603;SDS011;24924;50.054;8.790;2023-03-12T10:37:48;18.30;;;11.05;;
38603;SDS011;24924;50.054;8.790;2023-03-12T10:40:16;18.83;;;10.68;;
38603;SDS011;24924;50.054;8.790;2023-03-12T10:42:43;17.40;;;11.23;;
38603;SDS011;24924;50.054;8.790;2023-03-12T10:47:40;15.50;;;10.27;;
38603;SDS011;24924;50.054;8.790;2023-03-12T10:50:15;27.08;;;11.32;;
38603;SDS011;24924;50.054;8.790;2023-03-12T10:53:10;22.23;;;12.88;;
38603;SDS011;24924;50.054;8.790;2023-03-12T10:58:34;19.85;;;11.40;;
38603;SDS011;24924;50.054;8.790;2023-03-12T11:01:03;22.73;;;13.45;;
38603;SDS011;24924;50.054;8.790;2023-03-12T11:03:30;22.13;;;13.77;;
38603;SDS011;24924;50.054;8.790;2023-03-12T11:06:19;20.38;;;10.32;;
38603;SDS011;24924;50.054;8.790;2023-03-12T11:11:38;27.92;;;13.32;;
38603;SDS011;24924;50.054;8.790;2023-03-12T11:14:06;18.88;;;12.13;;
38603;SDS011;24924;50.054;8.790;2023-03-12T11:16:34;19.48;;;11.60;;
38603;SDS011;24924;50.054;8.790;2023-03-12T11:19:03;19.05;;;11.70;;
38603;SDS011;24924;50.054;8.790;2023-03-12T11:21:31;19.07;;;11.87;;
38603;SDS011;24924;50.054;8.790;2023-03-12T11:26:38;15.52;;;11.20;;
38603;SDS011;24924;50.054;8.790;2023-03-12T11:29:16;22.52;;;11.90;;
38603;SDS011;24924;50.054;8.790;2023-03-12T11:31:55;21.25;;;12.38;;
38603;SDS011;24924;50.054;8.790;2023-03-12T11:34:25;20.53;;;12.07;;
38603;SDS011;24924;50.054;8.790;2023-03-12T11:36:56;18.60;;;10.18;;
38603;SDS011;24924;50.054;8.790;2023-03-12T11:50:34;20.63;;;13.07;;
38603;SDS011;24924;50.054;8.790;2023-03-12T11:56:00;25.83;;;13.38;;
38603;SDS011;24924;50.054;8.790;2023-03-12T12:07:10;21.48;;;14.13;;
38603;SDS011;24924;50.054;8.790;2023-03-12T12:09:56;24.02;;;14.45;;
38603;SDS011;24924;50.054;8.790;2023-03-12T12:15:26;25.00;;;14.90;;
38603;SDS011;24924;50.054;8.790;2023-03-12T12:20:31;20.83;;;14.13;;
38603;SDS011;24924;50.054;8.790;2023-03-12T12:26:07;22.65;;;14.50;;
38603;SDS011;24924;50.054;8.790;2023-03-12T12:31:31;23.35;;;16.13;;
38603;SDS011;24924;50.054;8.790;2023-03-12T12:36:47;21.20;;;15.00;;
38603;SDS011;24924;50.054;8.790;2023-03-12T12:39:22;21.50;;;13.50;;
38603;SDS011;24924;50.054;8.790;2023-03-12T12:41:56;20.27;;;13.27;;
38603;SDS011;24924;50.054;8.790;2023-03-12T12:44:30;23.13;;;14.60;;
38603;SDS011;24924;50.054;8.790;2023-03-12T12:47:05;22.58;;;13.95;;
38603;SDS011;24924;50.054;8.790;2023-03-12T12:49:43;22.25;;;14.45;;
38603;SDS011;24924;50.054;8.790;2023-03-12T12:52:15;25.80;;;16.80;;
38603;SDS011;24924;50.054;8.790;2023-03-12T12:54:48;23.23;;;15.17;;
38603;SDS011;24924;50.054;8.790;2023-03-12T13:02:44;22.52;;;14.50;;
38603;SDS011;24924;50.054;8.790;2023-03-12T13:05:19;27.40;;;16.23;;
38603;SDS011;24924;50.054;8.790;2023-03-12T13:07:53;22.37;;;15.20;;
38603;SDS011;24924;50.054;8.790;2023-03-12T13:13:03;19.67;;;13.98;;
38603;SDS011;24924;50.054;8.790;2023-03-12T13:15:45;24.03;;;14.20;;
38603;SDS011;24924;50.054;8.790;2023-03-12T13:18:25;22.73;;;16.73;;
38603;SDS011;24924;50.054;8.790;2023-03-12T13:26:22;23.15;;;15.70;;
38603;SDS011;24924;50.054;8.790;2023-03-12T13:36:42;22.07;;;15.67;;
38603;SDS011;24924;50.054;8.790;2023-03-12T13:44:49;21.73;;;14.38;;
38603;SDS011;24924;50.054;8.790;2023-03-12T13:47:33;20.20;;;14.43;;
38603;SDS011;24924;50.054;8.790;2023-03-12T13:50:11;22.33;;;13.97;;
38603;SDS011;24924;50.054;8.790;2023-03-12T13:52:40;20.55;;;12.73;;
38603;SDS011;24924;50.054;8.790;2023-03-12T13:55:21;18.60;;;13.38;;
38603;SDS011;24924;50.054;8.790;2023-03-12T13:57:53;19.15;;;12.20;;
38603;SDS011;24924;50.054;8.790;2023-03-12T14:00:38;20.80;;;13.23;;
38603;SDS011;24924;50.054;8.790;2023-03-12T14:05:46;19.98;;;13.77;;
38603;SDS011;24924;50.054;8.790;2023-03-12T14:08:23;19.88;;;13.05;;
38603;SDS011;24924;50.054;8.790;2023-03-12T14:14:25;19.98;;;11.73;;
38603;SDS011;24924;50.054;8.790;2023-03-12T14:17:18;18.43;;;12.83;;
38603;SDS011;24924;50.054;8.790;2023-03-12T14:20:10;19.25;;;12.00;;
38603;SDS011;24924;50.054;8.790;2023-03-12T14:22:38;17.27;;;11.52;;
38603;SDS011;24924;50.054;8.790;2023-03-12T14:25:15;18.50;;;12.02;;
38603;SDS011;24924;50.054;8.790;2023-03-12T14:27:48;18.08;;;12.48;;
38603;SDS011;24924;50.054;8.790;2023-03-12T14:32:44;17.10;;;11.88;;
38603;SDS011;24924;50.054;8.790;2023-03-12T14:35:16;17.20;;;10.73;;
38603;SDS011;24924;50.054;8.790;2023-03-12T14:38:03;17.55;;;11.65;;
38603;SDS011;24924;50.054;8.790;2023-03-12T14:40:44;17.40;;;12.10;;
38603;SDS011;24924;50.054;8.790;2023-03-12T14:43:19;17.87;;;11.43;;
38603;SDS011;24924;50.054;8.790;2023-03-12T14:45:45;20.98;;;12.38;;
38603;SDS011;24924;50.054;8.790;2023-03-12T14:48:18;16.48;;;11.45;;
38603;SDS011;24924;50.054;8.790;2023-03-12T14:50:45;20.48;;;12.18;;
38603;SDS011;24924;50.054;8.790;2023-03-12T14:53:27;19.88;;;11.63;;
38603;SDS011;24924;50.054;8.790;2023-03-12T14:58:25;20.42;;;12.18;;
38603;SDS011;24924;50.054;8.790;2023-03-12T15:00:55;18.50;;;11.55;;
38603;SDS011;24924;50.054;8.790;2023-03-12T15:03:26;22.13;;;12.20;;
38603;SDS011;24924;50.054;8.790;2023-03-12T15:05:54;16.70;;;11.45;;
38603;SDS011;24924;50.054;8.790;2023-03-12T15:08:20;18.23;;;11.13;;
38603;SDS011;24924;50.054;8.790;2023-03-12T15:10:53;17.73;;;10.38;;
38603;SDS011;24924;50.054;8.790;2023-03-12T15:13:21;19.15;;;9.65;;
38603;SDS011;24924;50.054;8.790;2023-03-12T15:15:51;18.65;;;10.05;;
38603;SDS011;24924;50.054;8.790;2023-03-12T15:18:20;14.95;;;9.25;;
38603;SDS011;24924;50.054;8.790;2023-03-12T15:20:50;15.83;;;8.40;;
38603;SDS011;24924;50.054;8.790;2023-03-12T15:23:18;17.88;;;8.75;;
38603;SDS011;24924;50.054;8.790;2023-03-12T15:25:45;18.40;;;8.30;;
38603;SDS011;24924;50.054;8.790;2023-03-12T15:30:40;14.50;;;7.70;;
38603;SDS011;24924;50.054;8.790;2023-03-12T15:33:08;13.37;;;7.00;;
38603;SDS011;24924;50.054;8.790;2023-03-12T15:35:37;16.23;;;7.88;;
38603;SDS011;24924;50.054;8.790;2023-03-12T15:38:11;13.82;;;7.07;;
38603;SDS011;24924;50.054;8.790;2023-03-12T15:40:38;13.27;;;6.90;;
38603;SDS011;24924;50.054;8.790;2023-03-12T15:43:04;13.27;;;6.63;;
38603;SDS011;24924;50.054;8.790;2023-03-12T15:45:34;15.00;;;6.40;;
38603;SDS011;24924;50.054;8.790;2023-03-12T15:48:03;12.88;;;6.00;;
38603;SDS011;24924;50.054;8.790;2023-03-12T15:50:40;14.00;;;5.80;;
38603;SDS011;24924;50.054;8.790;2023-03-12T15:55:36;10.50;;;5.68;;
38603;SDS011;24924;50.054;8.790;2023-03-12T15:58:21;14.10;;;6.03;;
38603;SDS011;24924;50.054;8.790;2023-03-12T16:01:06;12.70;;;6.10;;
38603;SDS011;24924;50.054;8.790;2023-03-12T16:03:34;12.38;;;5.68;;
38603;SDS011;24924;50.054;8.790;2023-03-12T16:06:00;13.68;;;6.00;;
38603;SDS011;24924;50.054;8.790;2023-03-12T16:08:39;12.53;;;5.70;;
38603;SDS011;24924;50.054;8.790;2023-03-12T16:11:14;15.27;;;6.05;;
38603;SDS011;24924;50.054;8.790;2023-03-12T16:13:42;13.63;;;5.72;;
38603;SDS011;24924;50.054;8.790;2023-03-12T16:16:10;12.18;;;5.85;;
38603;SDS011;24924;50.054;8.790;2023-03-12T16:18:37;10.87;;;5.27;;
38603;SDS011;24924;50.054;8.790;2023-03-12T16:21:03;12.30;;;5.45;;
38603;SDS011;24924;50.054;8.790;2023-03-12T16:23:29;11.95;;;5.38;;
38603;SDS011;24924;50.054;8.790;2023-03-12T16:25:55;10.35;;;5.03;;
38603;SDS011;24924;50.054;8.790;2023-03-12T16:28:22;15.15;;;6.00;;
38603;SDS011;24924;50.054;8.790;2023-03-12T16:30:48;10.30;;;5.23;;
38603;SDS011;24924;50.054;8.790;2023-03-12T16:33:16;12.35;;;5.60;;
38603;SDS011;24924;50.054;8.790;2023-03-12T16:35:43;13.18;;;5.32;;
38603;SDS011;24924;50.054;8.790;2023-03-12T16:38:09;13.43;;;5.43;;
38603;SDS011;24924;50.054;8.790;2023-03-12T16:40:37;16.60;;;5.37;;